Time;durP1;ratioP1;P1;durP2;ratioP2;P2;SDS_P1;SDS_P2;PMS_P1;PMS_P2;Temp;Humidity;BMP_temperature;BMP_pressure;BME280_temperature;BME280_humidity;BME280_pressure;Samples;Min_cycle;Max_cycle;Signal;HPM_P1;HPM_P2
2022/04/27 00:02:17;;;;;;;7.10;3.80;;;7.20;83.30;;;;;;5097921;28;20226;-82
2022/04/27 00:04:44;;;;;;;5.53;3.53;;;7.20;83.10;;;;;;5098115;28;20229;-82
2022/04/27 00:07:11;;;;;;;4.60;3.47;;;7.20;83.50;;;;;;5104091;27;20225;-82
2022/04/27 00:09:38;;;;;;;6.53;3.80;;;7.20;84.00;;;;;;5096334;28;20644;-81
2022/04/27 00:12:05;;;;;;;8.67;4.40;;;7.10;84.10;;;;;;5104046;28;20214;-81
2022/04/27 00:14:33;;;;;;;7.67;3.60;;;7.10;84.70;;;;;;5101192;27;20793;-82
2022/04/27 00:17:01;;;;;;;7.50;3.87;;;7.00;85.00;;;;;;5097326;28;20281;-81
2022/04/27 00:19:28;;;;;;;6.87;3.93;;;7.00;84.90;;;;;;5095629;28;20226;-82
2022/04/27 00:21:55;;;;;;;8.80;3.90;;;6.90;84.60;;;;;;5101967;28;20222;-82
2022/04/27 00:24:22;;;;;;;7.77;4.57;;;6.90;85.10;;;;;;5097232;28;20254;-82
2022/04/27 00:26:49;;;;;;;8.97;4.17;;;6.80;85.40;;;;;;5104321;28;20264;-82
2022/04/27 00:29:16;;;;;;;8.43;4.23;;;6.80;85.60;;;;;;5105435;28;20847;-82
2022/04/27 00:31:42;;;;;;;8.07;4.57;;;6.70;85.80;;;;;;5095711;28;20717;-82
2022/04/27 00:34:11;;;;;;;5.90;4.00;;;6.70;86.30;;;;;;5100867;28;20317;-82
2022/04/27 00:36:37;;;;;;;7.93;4.47;;;6.60;86.70;;;;;;5102305;28;20304;-82
2022/04/27 00:39:04;;;;;;;7.67;4.00;;;6.60;86.60;;;;;;5102353;27;22155;-82
2022/04/27 00:41:32;;;;;;;7.67;3.93;;;6.50;86.90;;;;;;5080828;27;20232;-82
2022/04/27 00:43:59;;;;;;;6.40;4.43;;;6.50;87.20;;;;;;5093518;27;20885;-81
2022/04/27 00:46:26;;;;;;;6.60;4.20;;;6.40;88.10;;;;;;5100776;28;20279;-81
2022/04/27 00:48:53;;;;;;;8.80;4.77;;;6.40;87.90;;;;;;5098566;27;20225;-81
2022/04/27 00:51:23;;;;;;;6.27;4.37;;;6.30;88.10;;;;;;5102899;27;20265;-80
2022/04/27 00:53:51;;;;;;;7.97;4.50;;;6.30;89.20;;;;;;5102449;28;20229;-81
2022/04/27 00:56:21;;;;;;;6.77;4.07;;;6.20;89.40;;;;;;5096741;28;20311;-80
2022/04/27 00:58:48;;;;;;;10.17;4.80;;;6.20;89.20;;;;;;5097089;28;20222;-82
2022/04/27 01:01:16;;;;;;;5.63;4.27;;;6.10;89.40;;;;;;5101484;28;20308;-82
2022/04/27 01:03:42;;;;;;;6.60;4.70;;;6.10;89.40;;;;;;5098674;28;20304;-82
2022/04/27 01:06:09;;;;;;;8.10;4.40;;;6.00;90.00;;;;;;5098288;28;20226;-82
2022/04/27 01:08:37;;;;;;;5.80;4.07;;;6.00;90.20;;;;;;5101234;28;20265;-82
2022/04/27 01:11:06;;;;;;;5.40;4.37;;;5.90;90.30;;;;;;5097972;27;20225;-82
2022/04/27 01:13:38;;;;;;;6.53;4.53;;;5.90;90.50;;;;;;5101259;28;20269;-82
2022/04/27 01:16:06;;;;;;;8.37;4.60;;;5.90;90.40;;;;;;5103062;28;20226;-82
2022/04/27 01:18:33;;;;;;;10.03;4.67;;;5.80;90.40;;;;;;5119021;27;20345;-83
2022/04/27 01:21:02;;;;;;;7.37;4.77;;;5.80;90.80;;;;;;5100824;28;20218;-82
2022/04/27 01:23:29;;;;;;;7.07;4.87;;;5.70;91.20;;;;;;5101611;27;20241;-82
2022/04/27 01:25:57;;;;;;;6.50;4.27;;;5.70;91.00;;;;;;5104075;27;20228;-82
2022/04/27 01:28:26;;;;;;;8.07;4.80;;;5.70;91.30;;;;;;5096001;28;20219;-81
2022/04/27 01:30:57;;;;;;;9.13;4.70;;;5.70;91.50;;;;;;5110410;27;20232;-81
2022/04/27 01:33:25;;;;;;;13.93;5.27;;;5.60;91.80;;;;;;5099292;28;20336;-81
2022/04/27 01:35:51;;;;;;;10.90;4.87;;;5.60;91.50;;;;;;5099939;28;20231;-81
2022/04/27 01:38:20;;;;;;;7.13;5.10;;;5.60;91.50;;;;;;5096756;28;20226;-82
2022/04/27 01:40:47;;;;;;;8.50;4.97;;;5.60;91.90;;;;;;5097494;27;20260;-83
2022/04/27 01:43:15;;;;;;;7.67;4.57;;;5.60;91.80;;;;;;5099239;28;20232;-83
2022/04/27 01:45:43;;;;;;;8.57;4.57;;;5.60;91.80;;;;;;5111478;27;20251;-82
2022/04/27 01:48:11;;;;;;;6.70;4.50;;;5.60;92.20;;;;;;5099237;28;20253;-83
2022/04/27 01:50:38;;;;;;;7.27;5.10;;;5.60;92.10;;;;;;5101089;28;20246;-82
2022/04/27 01:55:51;;;;;;;9.47;5.27;;;5.60;92.20;;;;;;5099511;28;20332;-82
2022/04/27 01:58:19;;;;;;;7.80;5.43;;;5.60;92.30;;;;;;5097836;28;20559;-81
2022/04/27 02:00:48;;;;;;;9.07;4.63;;;5.50;92.30;;;;;;5117932;27;20230;-81
2022/04/27 02:03:17;;;;;;;9.67;5.00;;;5.60;92.50;;;;;;5098335;28;20239;-82
2022/04/27 02:05:45;;;;;;;10.03;4.97;;;5.60;92.60;;;;;;5103409;28;20331;-82
2022/04/27 02:08:12;;;;;;;8.83;4.60;;;5.50;92.60;;;;;;5100244;28;20598;-83
2022/04/27 02:10:39;;;;;;;7.00;5.60;;;5.50;92.70;;;;;;5104976;28;20229;-83
2022/04/27 02:13:09;;;;;;;10.13;5.37;;;5.50;92.80;;;;;;5102345;28;20237;-83
2022/04/27 02:15:37;;;;;;;7.73;5.13;;;5.50;93.00;;;;;;5104394;28;20230;-83
2022/04/27 02:18:17;;;;;;;10.50;5.20;;;5.50;92.90;;;;;;5102634;28;20225;-82
2022/04/27 02:20:43;;;;;;;7.93;4.93;;;5.50;92.90;;;;;;5113575;28;20336;-82
2022/04/27 02:23:11;;;;;;;8.67;4.80;;;5.40;92.90;;;;;;5102076;28;20229;-82
2022/04/27 02:25:38;;;;;;;7.93;5.00;;;5.40;93.00;;;;;;5099557;28;20252;-82
2022/04/27 02:28:05;;;;;;;9.20;5.07;;;5.40;92.90;;;;;;5100839;28;20253;-81
2022/04/27 02:30:33;;;;;;;8.93;5.23;;;5.30;93.10;;;;;;5099067;28;20228;-81
2022/04/27 02:33:02;;;;;;;7.43;4.73;;;5.30;93.30;;;;;;5096415;28;20248;-82
2022/04/27 02:35:29;;;;;;;7.60;4.87;;;5.30;93.30;;;;;;5100436;28;21368;-82
2022/04/27 02:37:56;;;;;;;9.37;5.47;;;5.30;93.20;;;;;;5103882;28;20244;-83
2022/04/27 02:40:23;;;;;;;9.27;5.07;;;5.20;93.20;;;;;;5095874;28;20231;-81
2022/04/27 02:42:53;;;;;;;9.10;5.47;;;5.20;93.30;;;;;;5097987;28;20225;-81
2022/04/27 02:45:20;;;;;;;11.33;5.47;;;5.20;93.50;;;;;;5093731;28;20233;-81
2022/04/27 02:47:48;;;;;;;9.53;5.67;;;5.10;93.50;;;;;;5096660;28;20238;-81
2022/04/27 02:53:01;;;;;;;6.70;4.57;;;5.00;93.70;;;;;;5098719;28;20221;-81
2022/04/27 02:55:38;;;;;;;7.47;5.50;;;5.00;93.50;;;;;;5099001;28;20763;-81
2022/04/27 02:58:05;;;;;;;9.27;5.27;;;5.00;93.50;;;;;;5099158;28;20272;-83
2022/04/27 03:00:34;;;;;;;8.20;5.43;;;4.90;93.70;;;;;;5104144;27;20240;-81
2022/04/27 03:03:08;;;;;;;7.33;5.30;;;4.90;93.90;;;;;;5105056;27;20220;-81
2022/04/27 03:05:35;;;;;;;9.20;5.23;;;4.90;94.20;;;;;;5101661;27;20828;-81
2022/04/27 03:08:02;;;;;;;9.90;5.03;;;4.80;94.10;;;;;;5105078;27;20221;-82
2022/04/27 03:10:31;;;;;;;6.60;4.97;;;4.80;94.10;;;;;;5097991;27;20340;-82
2022/04/27 03:12:59;;;;;;;12.40;5.30;;;4.80;94.20;;;;;;5100157;28;20584;-82
2022/04/27 03:15:27;;;;;;;8.87;4.97;;;4.80;94.20;;;;;;5103582;28;21017;-82
2022/04/27 03:20:36;;;;;;;6.03;4.47;;;4.70;94.30;;;;;;5104415;28;20296;-82
2022/04/27 03:23:02;;;;;;;9.90;5.20;;;4.70;94.40;;;;;;5102795;28;20339;-81
2022/04/27 03:25:29;;;;;;;9.83;5.40;;;4.70;94.50;;;;;;5103309;28;20237;-82
2022/04/27 03:27:57;;;;;;;8.47;5.60;;;4.70;94.60;;;;;;5101747;27;20605;-82
2022/04/27 03:30:24;;;;;;;9.73;5.60;;;4.70;94.80;;;;;;5103291;28;20247;-82
2022/04/27 03:32:53;;;;;;;10.07;5.27;;;4.80;94.70;;;;;;5096521;28;20263;-84
2022/04/27 03:35:21;;;;;;;8.17;5.63;;;4.80;94.90;;;;;;5094450;28;20248;-83
2022/04/27 03:37:49;;;;;;;9.60;5.53;;;4.80;94.80;;;;;;5102320;28;20235;-82
2022/04/27 03:40:16;;;;;;;7.70;5.67;;;4.80;95.00;;;;;;5096933;28;20316;-83
2022/04/27 03:42:43;;;;;;;10.67;5.37;;;4.80;95.00;;;;;;5098557;28;20306;-82
2022/04/27 03:45:10;;;;;;;7.60;5.03;;;4.80;95.00;;;;;;5105162;28;20260;-82
2022/04/27 03:47:41;;;;;;;5.93;5.10;;;4.80;95.10;;;;;;5103788;28;20225;-81
2022/04/27 03:50:09;;;;;;;10.50;4.93;;;4.80;95.10;;;;;;5094896;27;20300;-81
2022/04/27 03:52:43;;;;;;;9.77;5.73;;;4.80;95.20;;;;;;5098762;27;20232;-81
2022/04/27 03:55:13;;;;;;;8.30;5.00;;;4.80;95.20;;;;;;5104754;28;20833;-81
2022/04/27 03:57:42;;;;;;;10.17;5.63;;;4.90;95.30;;;;;;5095995;28;20226;-80
2022/04/27 04:00:11;;;;;;;9.90;5.17;;;4.90;95.30;;;;;;5098259;27;20885;-80
2022/04/27 04:02:44;;;;;;;9.87;5.30;;;4.90;95.30;;;;;;5103466;27;20316;-80
2022/04/27 04:05:11;;;;;;;12.40;5.87;;;4.90;95.50;;;;;;5095771;28;21037;-81
2022/04/27 04:07:41;;;;;;;7.73;4.80;;;4.90;95.30;;;;;;5098292;28;20218;-82
2022/04/27 04:10:09;;;;;;;8.73;5.20;;;4.90;95.50;;;;;;5099360;28;20667;-81
2022/04/27 04:12:40;;;;;;;10.83;4.87;;;4.90;95.60;;;;;;5101518;28;20225;-82
2022/04/27 04:15:27;;;;;;;13.97;5.03;;;5.00;95.60;;;;;;5100351;27;20282;-82
2022/04/27 04:18:11;;;;;;;8.87;5.00;;;5.00;95.30;;;;;;5101275;27;20244;-82
2022/04/27 04:20:45;;;;;;;8.37;4.90;;;5.00;95.30;;;;;;5100247;28;20255;-82
2022/04/27 04:23:27;;;;;;;8.87;5.33;;;5.00;95.40;;;;;;5100556;28;20372;-82
2022/04/27 04:28:52;;;;;;;6.73;4.40;;;5.10;95.50;;;;;;5106116;27;20299;-82
2022/04/27 04:31:19;;;;;;;9.83;5.07;;;5.10;95.50;;;;;;5100608;28;20233;-80
2022/04/27 04:34:05;;;;;;;8.20;4.77;;;5.10;95.60;;;;;;5099267;28;20358;-77
2022/04/27 04:36:32;;;;;;;12.17;5.47;;;5.20;95.60;;;;;;5098765;28;20222;-80
2022/04/27 04:38:59;;;;;;;8.77;5.00;;;5.20;95.60;;;;;;5098465;28;20253;-79
2022/04/27 04:41:29;;;;;;;8.73;4.60;;;5.30;95.60;;;;;;5101779;28;20244;-80
2022/04/27 04:43:59;;;;;;;9.33;6.37;;;5.40;95.70;;;;;;5100654;28;20717;-80
2022/04/27 04:46:29;;;;;;;8.27;5.37;;;5.40;95.80;;;;;;5096172;28;20806;-81
2022/04/27 04:49:18;;;;;;;11.60;5.33;;;5.40;95.80;;;;;;5102833;28;20275;-79
2022/04/27 04:52:11;;;;;;;8.97;4.83;;;5.50;95.80;;;;;;5104138;27;20243;-80
2022/04/27 04:54:53;;;;;;;10.43;5.03;;;5.60;95.60;;;;;;5097995;28;20256;-80
2022/04/27 04:57:33;;;;;;;7.53;4.63;;;5.60;95.50;;;;;;5095708;28;21358;-80
2022/04/27 05:00:15;;;;;;;8.73;5.03;;;5.70;95.60;;;;;;5098046;28;21120;-81
2022/04/27 05:02:59;;;;;;;6.83;4.47;;;5.70;95.60;;;;;;5102235;28;20222;-80
2022/04/27 05:06:05;;;;;;;8.03;4.87;;;5.80;95.30;;;;;;5019035;28;20833;-79
2022/04/27 05:08:45;;;;;;;9.50;4.90;;;5.90;95.20;;;;;;5015162;28;20250;-82
2022/04/27 05:11:21;;;;;;;7.03;4.70;;;5.90;95.10;;;;;;5064752;27;20218;-80
2022/04/27 05:14:16;;;;;;;9.87;5.97;;;5.90;95.10;;;;;;5099143;28;20233;-84
2022/04/27 05:17:01;;;;;;;19.90;11.27;;;6.00;95.20;;;;;;5095993;28;20229;-81
2022/04/27 05:19:42;;;;;;;13.07;8.00;;;6.00;95.20;;;;;;5098980;28;20237;-81
2022/04/27 05:22:22;;;;;;;15.87;9.50;;;6.10;95.20;;;;;;5098129;28;20244;-81
2022/04/27 05:25:02;;;;;;;11.07;8.07;;;6.10;95.20;;;;;;5102700;28;20369;-82
2022/04/27 05:27:39;;;;;;;10.03;7.57;;;6.20;95.20;;;;;;5106899;28;20273;-81
2022/04/27 05:33:17;;;;;;;9.77;5.30;;;6.30;94.90;;;;;;5100824;28;20702;-81
2022/04/27 05:36:03;;;;;;;11.73;5.57;;;6.30;95.10;;;;;;5100189;28;20228;-81
2022/04/27 05:38:43;;;;;;;9.97;4.87;;;6.30;94.80;;;;;;5105547;28;20296;-82
2022/04/27 05:41:29;;;;;;;9.60;5.30;;;6.30;94.80;;;;;;5105646;28;20285;-81
2022/04/27 05:44:27;;;;;;;11.90;4.90;;;6.40;94.90;;;;;;5105509;28;20230;-81
2022/04/27 05:47:19;;;;;;;7.50;4.40;;;6.50;94.90;;;;;;5099790;28;20236;-81
2022/04/27 05:50:19;;;;;;;6.40;4.40;;;6.60;94.80;;;;;;5079181;28;20540;-82
2022/04/27 05:53:03;;;;;;;8.67;4.67;;;6.70;94.60;;;;;;5105997;28;20226;-80
2022/04/27 05:55:45;;;;;;;9.13;4.20;;;6.80;94.50;;;;;;5106189;28;20222;-81
2022/04/27 05:58:27;;;;;;;10.90;4.30;;;6.80;94.40;;;;;;5099138;28;20225;-80
2022/04/27 06:01:12;;;;;;;10.13;4.43;;;6.90;94.40;;;;;;5107633;27;20221;-80
2022/04/27 06:03:52;;;;;;;9.50;4.20;;;7.00;94.40;;;;;;5101598;28;20252;-80
2022/04/27 06:06:21;;;;;;;10.17;3.97;;;7.10;94.40;;;;;;5104302;28;20221;-81
2022/04/27 06:08:48;;;;;;;9.43;3.80;;;7.30;94.60;;;;;;5106063;28;20237;-81
2022/04/27 06:11:20;;;;;;;8.17;4.13;;;7.40;94.50;;;;;;5105326;28;20222;-81
2022/04/27 06:14:25;;;;;;;6.00;3.67;;;7.60;94.50;;;;;;5100695;28;20226;-81
2022/04/27 06:16:52;;;;;;;5.43;3.60;;;7.90;94.40;;;;;;5101712;28;20226;-80
2022/04/27 06:19:19;;;;;;;8.27;3.17;;;8.20;94.10;;;;;;5093048;28;20218;-80
2022/04/27 06:21:52;;;;;;;5.73;3.10;;;8.40;93.60;;;;;;5106354;28;20218;-81
2022/04/27 06:24:20;;;;;;;5.90;3.33;;;8.60;93.20;;;;;;5104812;28;20599;-81
2022/04/27 06:26:50;;;;;;;6.13;3.00;;;8.70;92.90;;;;;;5106403;28;20220;-81
2022/04/27 06:29:17;;;;;;;8.70;3.27;;;8.80;92.70;;;;;;5105203;28;20221;-80
2022/04/27 06:31:49;;;;;;;6.20;2.73;;;8.90;92.40;;;;;;5102273;28;20267;-81
2022/04/27 06:34:16;;;;;;;7.33;2.90;;;9.00;92.20;;;;;;5104615;28;20249;-80
2022/04/27 06:36:43;;;;;;;5.57;2.83;;;9.00;92.00;;;;;;5108120;28;20218;-81
2022/04/27 06:39:25;;;;;;;5.27;2.70;;;9.10;91.90;;;;;;5108351;27;20271;-81
2022/04/27 06:41:52;;;;;;;10.10;3.43;;;9.20;91.70;;;;;;5110272;28;21001;-80
2022/04/27 06:44:51;;;;;;;6.93;2.90;;;9.20;91.50;;;;;;5110693;28;20595;-81
2022/04/27 06:47:44;;;;;;;5.80;2.70;;;9.30;91.20;;;;;;5108282;28;20336;-81
2022/04/27 06:50:30;;;;;;;8.27;3.00;;;9.50;91.20;;;;;;5111135;28;20370;-81
2022/04/27 06:53:15;;;;;;;6.57;2.70;;;9.50;91.00;;;;;;5110842;28;20234;-80
2022/04/27 06:56:09;;;;;;;5.70;3.00;;;9.70;90.90;;;;;;5094190;28;20304;-81
2022/04/27 06:58:56;;;;;;;3.97;2.70;;;9.80;90.70;;;;;;5111031;27;20233;-81
2022/04/27 07:01:31;;;;;;;9.33;3.17;;;10.00;90.70;;;;;;5109114;28;20715;-81
2022/04/27 07:04:05;;;;;;;5.60;2.60;;;10.10;90.50;;;;;;5105045;28;20222;-80
2022/04/27 07:06:32;;;;;;;10.53;3.10;;;10.30;90.40;;;;;;5108433;28;20235;-80
2022/04/27 07:09:00;;;;;;;7.83;2.90;;;10.50;90.40;;;;;;5108087;28;20614;-81
2022/04/27 07:11:28;;;;;;;7.93;2.43;;;10.70;89.90;;;;;;5105888;28;20256;-81
2022/04/27 07:13:55;;;;;;;5.20;2.63;;;10.90;89.40;;;;;;5111015;28;20233;-81
2022/04/27 07:16:22;;;;;;;5.67;2.83;;;11.00;87.60;;;;;;5105373;28;20275;-81
2022/04/27 07:18:50;;;;;;;8.43;2.53;;;11.10;87.30;;;;;;5109852;28;20218;-80
2022/04/27 07:21:17;;;;;;;7.77;2.43;;;11.20;87.40;;;;;;5110158;28;20227;-81
2022/04/27 07:23:43;;;;;;;8.13;2.70;;;11.30;87.00;;;;;;5111753;28;20233;-81
2022/04/27 07:26:10;;;;;;;6.40;2.63;;;11.40;86.60;;;;;;5107779;28;20230;-80
2022/04/27 07:28:41;;;;;;;6.37;2.50;;;11.50;86.20;;;;;;5108645;28;20713;-81
2022/04/27 07:31:08;;;;;;;4.83;2.80;;;11.50;85.70;;;;;;5108125;28;20220;-81
2022/04/27 07:33:35;;;;;;;6.43;2.57;;;11.60;85.80;;;;;;5108292;28;20235;-81
2022/04/27 07:36:02;;;;;;;8.17;2.63;;;11.60;85.60;;;;;;5102713;28;20227;-80
2022/04/27 07:38:29;;;;;;;7.53;2.90;;;11.70;85.30;;;;;;5107543;28;20295;-81
2022/04/27 07:40:55;;;;;;;9.80;3.27;;;11.80;85.30;;;;;;5108795;28;20275;-80
2022/04/27 07:43:22;;;;;;;6.70;3.53;;;11.90;85.40;;;;;;5107158;28;20234;-80
2022/04/27 07:45:50;;;;;;;6.07;2.37;;;12.00;84.70;;;;;;5103766;28;20231;-80
2022/04/27 07:48:17;;;;;;;6.33;3.13;;;12.10;84.30;;;;;;5107580;28;20236;-80
2022/04/27 07:50:43;;;;;;;5.63;2.57;;;12.30;83.60;;;;;;5109238;28;20229;-80
2022/04/27 07:53:10;;;;;;;5.57;2.40;;;12.40;83.60;;;;;;5107636;28;20237;-81
2022/04/27 07:55:36;;;;;;;4.47;2.50;;;12.50;82.80;;;;;;5107442;27;20403;-80
2022/04/27 07:58:04;;;;;;;4.03;2.27;;;12.60;82.40;;;;;;5110206;28;20653;-81
2022/04/27 08:00:31;;;;;;;11.43;2.50;;;12.80;82.30;;;;;;5100860;28;20228;-81
2022/04/27 08:03:00;;;;;;;6.80;2.53;;;13.00;82.20;;;;;;5103526;27;20226;-80
2022/04/27 08:05:27;;;;;;;5.37;2.20;;;13.20;81.70;;;;;;5090413;28;20234;-81
2022/04/27 08:07:54;;;;;;;7.53;2.67;;;13.60;81.80;;;;;;5108508;28;20230;-80
2022/04/27 08:10:22;;;;;;;5.13;2.33;;;14.00;81.60;;;;;;5114124;27;20233;-80
2022/04/27 08:12:50;;;;;;;4.30;2.30;;;14.50;80.80;;;;;;5108641;27;20451;-81
2022/04/27 08:15:18;;;;;;;5.17;2.47;;;14.90;79.30;;;;;;5103627;28;20288;-81
2022/04/27 08:17:56;;;;;;;6.60;2.50;;;15.50;77.60;;;;;;5108782;27;20278;-81
2022/04/27 08:23:12;;;;;;;4.32;2.40;;;16.50;76.00;;;;;;5100555;28;20230;-81
2022/04/27 08:25:40;;;;;;;4.78;1.80;;;17.00;73.80;;;;;;5107733;28;20639;-81
2022/04/27 08:28:08;;;;;;;5.57;2.20;;;17.40;72.10;;;;;;5109909;28;20226;-80
2022/04/27 08:30:35;;;;;;;5.38;2.08;;;17.70;71.20;;;;;;5108379;28;20226;-80
2022/04/27 08:33:02;;;;;;;4.45;1.90;;;18.10;67.80;;;;;;5110324;27;20278;-81
2022/04/27 08:35:32;;;;;;;4.38;2.28;;;18.30;68.90;;;;;;5102773;28;20662;-81
2022/04/27 08:38:03;;;;;;;4.82;1.92;;;18.70;67.90;;;;;;5110311;28;20232;-80
2022/04/27 08:40:30;;;;;;;7.28;2.42;;;19.00;67.20;;;;;;5105744;28;20865;-80
2022/04/27 08:43:01;;;;;;;6.47;2.80;;;19.40;66.20;;;;;;5102728;28;20603;-80
2022/04/27 08:45:28;;;;;;;4.78;2.50;;;19.80;65.10;;;;;;5105232;28;20261;-81
2022/04/27 08:47:55;;;;;;;4.22;2.28;;;20.20;64.00;;;;;;5107587;28;20243;-80
2022/04/27 08:50:24;;;;;;;5.53;2.75;;;20.60;64.30;;;;;;5108727;28;20317;-80
2022/04/27 08:52:53;;;;;;;6.65;2.80;;;21.00;62.40;;;;;;5109035;28;20275;-81
2022/04/27 08:55:21;;;;;;;8.40;2.53;;;21.20;59.90;;;;;;5109683;27;20752;-81
2022/04/27 08:57:48;;;;;;;7.03;2.63;;;21.50;59.60;;;;;;5108906;28;20232;-81
2022/04/27 09:00:16;;;;;;;4.97;2.47;;;21.70;59.00;;;;;;5108431;28;20218;-80
2022/04/27 09:02:43;;;;;;;5.45;2.60;;;21.80;58.40;;;;;;5110357;28;20332;-80
2022/04/27 09:05:12;;;;;;;5.82;2.55;;;22.00;57.60;;;;;;5109242;28;20745;-80
2022/04/27 09:07:40;;;;;;;4.82;2.85;;;22.10;57.30;;;;;;5110113;27;20313;-81
2022/04/27 09:10:09;;;;;;;3.60;2.50;;;22.20;56.70;;;;;;5108974;28;20224;-80
2022/04/27 09:12:38;;;;;;;4.47;2.50;;;22.20;55.90;;;;;;5109023;28;20228;-81
2022/04/27 09:15:07;;;;;;;6.85;2.53;;;22.40;56.00;;;;;;5101430;28;20312;-80
2022/04/27 09:23:07;;;;;;;5.93;3.00;;;23.10;54.90;;;;;;5108052;27;20331;-79
2022/04/27 09:25:37;;;;;;;5.28;3.13;;;23.40;54.40;;;;;;5105683;28;20690;-78
2022/04/27 09:28:05;;;;;;;4.47;2.53;;;23.60;53.00;;;;;;5101821;28;20240;-80
2022/04/27 09:30:33;;;;;;;3.83;2.60;;;23.70;52.80;;;;;;5104457;28;20246;-80
2022/04/27 09:33:00;;;;;;;6.68;3.33;;;23.90;52.20;;;;;;5099756;28;20616;-79
2022/04/27 09:35:34;;;;;;;6.82;3.03;;;24.10;51.80;;;;;;5107799;28;20226;-79
2022/04/27 09:38:17;;;;;;;4.38;2.60;;;24.20;51.60;;;;;;5101910;28;20221;-80
2022/04/27 09:40:46;;;;;;;4.25;2.60;;;24.30;50.80;;;;;;5106942;28;20248;-80
2022/04/27 09:43:14;;;;;;;4.95;3.00;;;24.50;49.70;;;;;;5110715;28;20620;-80
2022/04/27 09:45:42;;;;;;;5.18;3.03;;;24.60;50.10;;;;;;5110764;28;20222;-80
2022/04/27 09:48:11;;;;;;;6.32;2.88;;;24.60;50.10;;;;;;5108326;28;20225;-80
2022/04/27 09:50:48;;;;;;;6.25;3.28;;;24.60;50.30;;;;;;5102066;28;20515;-79
2022/04/27 09:53:16;;;;;;;6.95;3.42;;;24.70;49.70;;;;;;5108650;28;20226;-80
2022/04/27 09:55:48;;;;;;;4.70;2.83;;;24.80;49.40;;;;;;5097954;28;20224;-80
2022/04/27 09:58:18;;;;;;;6.63;3.55;;;24.80;48.80;;;;;;5104710;28;20679;-80
2022/04/27 10:00:47;;;;;;;4.25;3.00;;;24.90;49.20;;;;;;5110894;28;20226;-80
2022/04/27 10:03:16;;;;;;;7.50;3.17;;;25.00;49.00;;;;;;5108073;28;20226;-80
2022/04/27 10:05:43;;;;;;;3.75;2.97;;;25.10;47.60;;;;;;5110245;28;20236;-80
2022/04/27 10:08:11;;;;;;;4.50;3.25;;;25.10;47.70;;;;;;5111758;28;20225;-80
2022/04/27 10:10:39;;;;;;;5.10;2.80;;;25.00;46.40;;;;;;5114809;28;20239;-80
2022/04/27 10:13:10;;;;;;;4.60;3.53;;;25.00;46.90;;;;;;5113545;28;20218;-80
2022/04/27 10:15:37;;;;;;;5.50;2.67;;;25.00;46.00;;;;;;5112821;28;20286;-80
2022/04/27 10:18:05;;;;;;;5.70;2.88;;;25.10;46.90;;;;;;5108340;28;20221;-79
2022/04/27 10:20:32;;;;;;;2.97;2.60;;;25.10;46.50;;;;;;5113838;28;21075;-79
2022/04/27 10:23:24;;;;;;;4.53;2.75;;;25.20;46.50;;;;;;5111948;28;20218;-80
2022/04/27 10:26:16;;;;;;;5.45;2.75;;;25.40;46.40;;;;;;5114237;27;20221;-80
2022/04/27 10:28:49;;;;;;;3.75;2.78;;;25.50;46.50;;;;;;5110994;28;20350;-80
2022/04/27 10:31:49;;;;;;;6.40;2.83;;;25.50;45.40;;;;;;5107250;27;20274;-79
2022/04/27 10:34:20;;;;;;;5.82;2.70;;;25.30;44.80;;;;;;5111938;28;20232;-79
2022/04/27 10:36:48;;;;;;;6.07;3.00;;;25.10;45.30;;;;;;5114058;28;20602;-80
2022/04/27 10:39:20;;;;;;;4.40;2.80;;;25.10;46.10;;;;;;5104530;28;20758;-80
2022/04/27 10:42:08;;;;;;;4.75;2.60;;;25.10;46.30;;;;;;5113637;27;20232;-79
2022/04/27 10:45:10;;;;;;;5.10;3.08;;;25.20;45.50;;;;;;5093817;28;20237;-80
2022/04/27 10:47:43;;;;;;;5.55;3.47;;;25.40;45.20;;;;;;5106130;28;20226;-79
2022/04/27 10:50:30;;;;;;;5.13;3.20;;;25.50;44.40;;;;;;5110477;28;20325;-80
2022/04/27 10:53:14;;;;;;;5.38;2.90;;;25.60;45.30;;;;;;5111609;28;20238;-80
2022/04/27 10:55:54;;;;;;;5.03;3.15;;;25.50;44.50;;;;;;5112409;27;20236;-80
2022/04/27 10:58:34;;;;;;;6.53;3.55;;;25.20;43.80;;;;;;5110843;28;20609;-80
2022/04/27 11:01:19;;;;;;;5.18;3.10;;;24.70;44.10;;;;;;5104509;28;20246;-80
2022/04/27 11:03:58;;;;;;;5.80;3.63;;;24.30;44.50;;;;;;5114485;27;20221;-80
2022/04/27 11:06:24;;;;;;;5.82;3.35;;;24.10;44.80;;;;;;5110459;28;20225;-80
2022/04/27 11:09:09;;;;;;;5.45;3.40;;;23.90;44.80;;;;;;5113297;28;20218;-80
2022/04/27 11:11:52;;;;;;;5.65;3.00;;;23.60;44.50;;;;;;5113626;28;20226;-80
2022/04/27 11:14:29;;;;;;;6.05;3.47;;;23.40;45.40;;;;;;5110484;28;20666;-79
2022/04/27 11:16:57;;;;;;;7.15;3.13;;;23.10;44.70;;;;;;5113683;28;20230;-80
2022/04/27 11:19:34;;;;;;;3.72;2.80;;;22.70;44.80;;;;;;5107821;28;20228;-80
2022/04/27 11:22:10;;;;;;;7.15;2.67;;;22.40;45.20;;;;;;5104808;27;20879;-80
2022/04/27 11:24:37;;;;;;;5.82;3.10;;;22.00;45.70;;;;;;5106946;28;20229;-79
2022/04/27 11:27:05;;;;;;;6.47;3.47;;;21.80;46.00;;;;;;5112693;28;20676;-79
2022/04/27 11:29:33;;;;;;;4.03;3.20;;;21.40;45.80;;;;;;5105891;28;20246;-80
2022/04/27 11:32:05;;;;;;;3.42;2.70;;;21.10;46.30;;;;;;5103269;28;20275;-80
2022/04/27 11:34:33;;;;;;;4.60;2.42;;;20.90;46.90;;;;;;5111682;28;20607;-80
2022/04/27 11:37:13;;;;;;;5.38;3.03;;;20.80;47.40;;;;;;5119385;27;20230;-79
2022/04/27 11:39:40;;;;;;;5.63;2.70;;;20.70;46.70;;;;;;5111663;28;20717;-79
2022/04/27 11:42:07;;;;;;;4.10;2.97;;;20.80;47.00;;;;;;5113601;28;20218;-79
2022/04/27 11:44:34;;;;;;;4.90;2.95;;;20.70;46.80;;;;;;5109336;28;20271;-80
2022/04/27 11:47:02;;;;;;;4.45;3.20;;;20.70;46.60;;;;;;5104868;28;20256;-80
2022/04/27 11:49:29;;;;;;;5.30;2.58;;;20.70;46.40;;;;;;5107321;28;20691;-79
2022/04/27 11:51:56;;;;;;;4.20;2.75;;;20.70;46.60;;;;;;5111667;28;20321;-80
2022/04/27 11:54:27;;;;;;;3.83;2.60;;;20.80;46.20;;;;;;5110892;27;20544;-80
2022/04/27 11:57:00;;;;;;;3.30;2.47;;;21.00;46.10;;;;;;5097190;28;20257;-80
2022/04/27 11:59:41;;;;;;;5.65;2.85;;;21.20;46.40;;;;;;5109345;28;20228;-80
2022/04/27 12:02:09;;;;;;;3.53;2.45;;;21.40;45.90;;;;;;5112078;27;20228;-79
2022/04/27 12:04:36;;;;;;;4.03;2.53;;;21.80;45.70;;;;;;5111940;28;20371;-80
2022/04/27 12:07:11;;;;;;;4.10;2.50;;;22.10;45.80;;;;;;5111259;28;20226;-80
2022/04/27 12:09:37;;;;;;;5.28;2.78;;;22.30;45.20;;;;;;5110759;28;20225;-79
2022/04/27 12:12:09;;;;;;;5.70;2.38;;;22.50;44.90;;;;;;5113168;28;20221;-79
2022/04/27 12:14:37;;;;;;;2.70;2.47;;;22.80;44.20;;;;;;5105110;28;20249;-80
2022/04/27 12:17:06;;;;;;;3.45;2.40;;;23.00;44.30;;;;;;5112223;28;20706;-79
2022/04/27 12:19:36;;;;;;;4.40;2.40;;;23.20;44.10;;;;;;5112209;28;20249;-80
2022/04/27 12:22:13;;;;;;;3.03;2.42;;;23.30;43.90;;;;;;5109301;28;20229;-79
2022/04/27 12:24:43;;;;;;;7.07;2.70;;;23.30;43.80;;;;;;5105228;28;20340;-79
2022/04/27 12:27:21;;;;;;;4.05;2.50;;;23.30;43.30;;;;;;5110764;28;20230;-79
2022/04/27 12:29:48;;;;;;;5.13;2.70;;;23.20;44.20;;;;;;5111354;28;20687;-80
2022/04/27 12:32:15;;;;;;;3.20;2.42;;;23.20;43.60;;;;;;5107683;28;20279;-80
2022/04/27 12:37:32;;;;;;;5.13;2.80;;;23.20;43.50;;;;;;5107034;28;20226;-79
2022/04/27 12:40:14;;;;;;;4.35;2.50;;;23.20;43.40;;;;;;5102460;28;20249;-80
2022/04/27 12:42:59;;;;;;;4.18;2.53;;;23.00;43.30;;;;;;5108148;28;20230;-79
2022/04/27 12:45:26;;;;;;;3.35;2.47;;;22.90;43.30;;;;;;5111912;28;20240;-80
2022/04/27 12:47:53;;;;;;;4.47;2.88;;;22.80;43.20;;;;;;5110932;28;20226;-80
2022/04/27 12:50:21;;;;;;;6.70;2.55;;;22.70;43.00;;;;;;5109442;27;20226;-80
2022/04/27 12:52:49;;;;;;;4.50;2.45;;;22.70;42.60;;;;;;5110831;28;20232;-80
2022/04/27 12:55:17;;;;;;;4.70;2.28;;;22.80;43.10;;;;;;5106295;28;20234;-80
2022/04/27 12:57:45;;;;;;;3.90;2.53;;;22.80;42.80;;;;;;5100234;28;20753;-80
2022/04/27 13:00:14;;;;;;;4.18;2.58;;;23.00;42.60;;;;;;5110057;28;20234;-80
2022/04/27 13:02:41;;;;;;;2.63;2.30;;;23.10;42.10;;;;;;5111890;27;20238;-79
2022/04/27 13:05:09;;;;;;;3.88;2.70;;;23.20;42.20;;;;;;5102792;28;20778;-79
2022/04/27 13:07:37;;;;;;;3.72;2.15;;;23.20;42.20;;;;;;5098219;28;20777;-79
2022/04/27 13:12:51;;;;;;;3.78;2.80;;;23.30;42.20;;;;;;5109457;28;20229;-80
2022/04/27 13:15:17;;;;;;;4.57;2.90;;;23.20;41.80;;;;;;5107824;28;20257;-80
2022/04/27 13:17:44;;;;;;;4.65;2.45;;;23.00;41.50;;;;;;5109303;28;20286;-79
2022/04/27 13:20:11;;;;;;;7.28;2.83;;;22.80;41.90;;;;;;5105217;28;20233;-79
2022/04/27 13:22:40;;;;;;;3.78;2.47;;;22.50;41.90;;;;;;5110176;27;20258;-79
2022/04/27 13:25:09;;;;;;;3.90;2.65;;;22.40;42.10;;;;;;5107706;28;20228;-80
2022/04/27 13:27:36;;;;;;;4.45;2.75;;;22.20;42.00;;;;;;5109246;28;20373;-79
2022/04/27 13:30:03;;;;;;;3.65;2.90;;;22.10;42.10;;;;;;5110194;28;20249;-79
2022/04/27 13:32:30;;;;;;;4.15;3.00;;;22.00;42.50;;;;;;5109740;28;20316;-79
2022/04/27 13:34:56;;;;;;;4.45;2.75;;;21.80;42.40;;;;;;5101031;28;20226;-79
2022/04/27 13:37:23;;;;;;;4.90;2.88;;;21.80;42.70;;;;;;5107819;28;20218;-80
2022/04/27 13:39:52;;;;;;;3.38;2.60;;;21.70;42.60;;;;;;5102136;28;20730;-79
2022/04/27 13:42:19;;;;;;;4.38;2.60;;;21.60;42.80;;;;;;5109289;28;20224;-80